BIRK

Reykjavik Airport

Reykjavik, Iceland
METAR BIRK 201500Z 19009KT 9999 VCSH FEW022CB BKN034 01/M02 Q1014 RESHSN R19/590262
Observed Flight Rules
Feb-20 @ 15:00 UTC (5 hours ago) Visual Flight Rules
Wind Visibility Clouds
190° at 9 knots 10,000+ meters
  • Few at 2,200' AGL
  • Broken at 3,400' AGL
Temperatures Readings
Current 1°C / 34°F
Dewpoint -2°C / 28°F
Humidity 81%
Altimeter 29.94" Hg
Pressure 1014 hPa
Elevation 61
METAR BIRK 201500Z 19009KT 9999 VCSH FEW022CB BKN034 01/M02 Q1014 RESHSN R19/590262
Observed Flight Rules
Feb-20 @ 15:00 UTC
(5 hours ago)
VFR
Wind Visibility
190° at 9 knots 10,000+ meters
Clouds
  • Few at 2,200' AGL
  • Broken at 3,400' AGL
Temperature Dewpoint
1°C / 34°F -2°C / 28°F
Humidity Altimeter Pressure
81% 29.94" Hg 1014 hPa